Lincoln, NE

7:42 PM CDT on March 23, 2017 (GMT -0500)
30th and South Street Neighborhood | | Change Station

Elev 1214 ft 40.79 °N, 96.68 °W | Updated 4 minutes ago

Partly Cloudy
Partly Cloudy
70.9 °F
Feels Like 77 °F
N
2.2
Wind Variable Wind from South

Today
High -- | Low -- °F
--% Chance of Precip.
Yesterday
High -- | Low -- °F
Precip. -- in
Pressure 29.63 in
Visibility 10.0 miles
Clouds Few 10000 ft
Heat Index 77 °F
Dew Point 54 °F
Humidity 55%
Rainfall 0.00 in
Snow Depth Not available.
7:24 AM 7:42 PM
Waning Crescent, 19% visible
METAR KLNK 232354Z 19012KT 10SM FEW100 22/12 A2965 RMK AO2 PK WND 20029/2302 SLP033 T02220122 10250 20183 56008
Pressure 29.63 in
Visibility 10.0 miles
Clouds Few 10000 ft
Heat Index 77 °F
Dew Point 54 °F
Humidity 55%
Rainfall 0.00 in
Snow Depth Not available.
7:24 AM 7:42 PM
Waning Crescent, 19% visible
METAR KLNK 232354Z 19012KT 10SM FEW100 22/12 A2965 RMK AO2 PK WND 20029/2302 SLP033 T02220122 10250 20183 56008

Get Severe Weather Alerts

Thanks for signing up!

Be on the lookout for a verification email in your inbox.

You'll start receiving the daily forecast at 8 AM.

×

10-Day Weather Forecast

Almanac

Astronomy

Mar. 23, 2017 Rise Set
Actual Time
Civil Twilight
Nautical Twilight
Astronomical Twilight
Moon
Length of Visible Light
Length of Day
Tomorrow will be .
, % of the Moon is Illuminated

Today's Extremes

State Highs State Lows

Community

WunderPhotos

Upload Photos

1,962,540 photos uploaded!

WunderBlog® & News

Nearby

Air Quality

  Air Quality AQ Index Pollutant
Not available.

Snow Depth

Station Depth Elevation

Earthquake Activity

City Distance Mag. Time & Date
Minimum magnitude displayed is 2.5.

Earthquake Activity

City Distance Mag. Time & Date
Minimum magnitude displayed is 2.5.

Coastal Water Temperatures

Place Temperature

Stations

Nearby Weather Stations

Station Location Temp. Windchill Dew Point Humidity Wind Precip. Elev Updated Type
                   

Watches & Warnings

There are currently no watches in effect.